Terminal Aerodrome Forecast
Issued by NWS

Home | Current Version | Previous Version | Text Only | Print | Product List | Glossary On
Versions: 1 2 3 4 5 6 7 8 9 10 11 12 13 14 15 16 17
490
FTUS41 KPBZ 240704 AAA
TAFZZV
TAF AMD
KZZV 240704Z 2407/2506 16006KT P6SM BKN060 WS020/20040KT
      TEMPO 2407/2408 6SM -RA
     FM241000 18008KT P6SM BKN100
     FM241500 22010G20KT P6SM BKN200=

USA.gov is the U.S. government's official web portal to all federal, state and local government web resources and services.